Terminal Aerodrome Forecast
Issued by NWS

Home | Current Version | Previous Version | Text Only | Print | Product List | Glossary On
Versions: 1 2 3 4 5 6 7 8 9 10 11 12 13 14 15 16 17 18 19 20 21 22 23 24 25 26 27 28 29 30 31 32 33 34 35 36 37 38 39 40 41 42 43 44 45 46 47 48 49 50
000
FTUS44 KHGX 300526
TAFCXO
TAF
KCXO 300526Z 3006/3106 00000KT 1/2SM FG BKN002
      TEMPO 3006/3008 1/4SM FG VV002
     FM300800 30009KT P6SM SCT250
     FM301500 31009G15KT P6SM SKC
     FM310000 VRB03KT P6SM SKC=

USA.gov is the U.S. government's official web portal to all federal, state and local government web resources and services.